Time;durP1;ratioP1;P1;durP2;ratioP2;P2;SDS_P1;SDS_P2;PMS_P1;PMS_P2;Temp;Humidity;BMP_temperature;BMP_pressure;BME280_temperature;BME280_humidity;BME280_pressure;Samples;Min_cycle;Max_cycle;Signal;HPM_P1;HPM_P2
2022/10/22 00:00:10;;;;;;;7.18;4.43;;;;;;;;;;10359229;28;20116;-57
2022/10/22 00:05:10;;;;;;;11.27;4.53;;;;;;;;;;10373329;28;20041;-54
2022/10/22 00:10:10;;;;;;;6.20;4.70;;;;;;;;;;10360025;28;20037;-57
2022/10/22 00:15:11;;;;;;;9.60;5.00;;;;;;;;;;10371031;28;20026;-57
2022/10/22 00:20:11;;;;;;;5.25;4.53;;;;;;;;;;10347356;28;20042;-56
2022/10/22 00:25:11;;;;;;;8.63;4.47;;;;;;;;;;10357201;28;20052;-56
2022/10/22 00:30:12;;;;;;;6.93;5.07;;;;;;;;;;10367158;28;20072;-57
2022/10/22 00:35:12;;;;;;;6.23;4.73;;;;;;;;;;10360853;28;20018;-58
2022/10/22 00:40:12;;;;;;;5.85;4.72;;;;;;;;;;10369292;28;20088;-53
2022/10/22 00:45:17;;;;;;;6.47;4.68;;;;;;;;;;10366403;28;20121;-58
2022/10/22 00:50:38;;;;;;;8.00;4.72;;;;;;;;;;10369702;28;20369;-58
2022/10/22 00:55:39;;;;;;;7.38;5.15;;;;;;;;;;10367308;28;20045;-59
2022/10/22 01:00:39;;;;;;;6.75;4.82;;;;;;;;;;10369460;28;20085;-56
2022/10/22 01:05:50;;;;;;;10.13;5.00;;;;;;;;;;10367960;28;20129;-58
2022/10/22 01:10:58;;;;;;;7.93;5.20;;;;;;;;;;10359002;28;20498;-57
2022/10/22 01:15:58;;;;;;;5.65;4.65;;;;;;;;;;10368336;28;20094;-58
2022/10/22 01:21:01;;;;;;;6.25;4.97;;;;;;;;;;10356825;28;20129;-57
2022/10/22 01:26:20;;;;;;;9.05;4.70;;;;;;;;;;10367821;28;20045;-59
2022/10/22 01:31:21;;;;;;;10.57;4.65;;;;;;;;;;10358222;28;20037;-59
2022/10/22 01:36:21;;;;;;;9.95;5.00;;;;;;;;;;10366807;28;20528;-58
2022/10/22 01:41:22;;;;;;;9.65;5.53;;;;;;;;;;10364838;28;20087;-55
2022/10/22 01:46:24;;;;;;;10.83;4.43;;;;;;;;;;10365199;28;20045;-58
2022/10/22 01:51:42;;;;;;;7.47;4.25;;;;;;;;;;10359675;28;20804;-55
2022/10/22 01:56:49;;;;;;;8.40;4.95;;;;;;;;;;10362584;28;20030;-54
2022/10/22 02:01:50;;;;;;;7.13;5.00;;;;;;;;;;10364004;28;20143;-57
2022/10/22 02:06:56;;;;;;;5.43;4.23;;;;;;;;;;10364210;28;20138;-57
2022/10/22 02:12:01;;;;;;;5.00;4.28;;;;;;;;;;10365349;28;20030;-58
2022/10/22 02:17:07;;;;;;;9.65;4.43;;;;;;;;;;10353747;28;20116;-58
2022/10/22 02:22:10;;;;;;;7.32;4.00;;;;;;;;;;10366242;28;20030;-58
2022/10/22 02:27:19;;;;;;;5.97;3.97;;;;;;;;;;10359478;28;20447;-56
2022/10/22 02:32:28;;;;;;;5.13;4.07;;;;;;;;;;10366496;28;20041;-58
2022/10/22 02:37:33;;;;;;;5.78;4.38;;;;;;;;;;10364883;28;20030;-59
2022/10/22 02:42:43;;;;;;;6.68;4.18;;;;;;;;;;10365706;28;20516;-59
2022/10/22 02:47:47;;;;;;;4.88;3.80;;;;;;;;;;10354572;28;20589;-59
2022/10/22 02:52:51;;;;;;;12.15;4.65;;;;;;;;;;10365942;28;20033;-58
2022/10/22 02:57:55;;;;;;;6.57;4.07;;;;;;;;;;10359239;28;20060;-57
2022/10/22 03:02:59;;;;;;;5.85;4.28;;;;;;;;;;10366198;28;20393;-59
2022/10/22 03:08:02;;;;;;;4.80;4.03;;;;;;;;;;10370115;28;20030;-58
2022/10/22 03:13:06;;;;;;;6.22;4.40;;;;;;;;;;10373987;28;20036;-58
2022/10/22 03:18:12;;;;;;;6.80;4.28;;;;;;;;;;10372918;28;20496;-58
2022/10/22 03:23:18;;;;;;;6.68;3.92;;;;;;;;;;10373276;28;20037;-52
2022/10/22 03:28:22;;;;;;;5.63;4.32;;;;;;;;;;10371954;28;20061;-56
2022/10/22 03:33:22;;;;;;;7.72;4.40;;;;;;;;;;10352407;28;20033;-58
2022/10/22 03:38:22;;;;;;;4.93;3.47;;;;;;;;;;10372500;28;20037;-59
2022/10/22 03:43:23;;;;;;;4.80;4.27;;;;;;;;;;10369833;28;20037;-58
2022/10/22 03:48:23;;;;;;;5.80;4.40;;;;;;;;;;10371331;28;20036;-58
2022/10/22 03:53:23;;;;;;;6.00;4.07;;;;;;;;;;10366087;28;20034;-57
2022/10/22 03:58:23;;;;;;;5.53;3.90;;;;;;;;;;10371909;28;20115;-57
2022/10/22 04:03:24;;;;;;;4.72;3.95;;;;;;;;;;10370109;28;20489;-54
2022/10/22 04:08:24;;;;;;;5.15;3.90;;;;;;;;;;10371131;28;20034;-59
2022/10/22 04:13:25;;;;;;;5.53;4.07;;;;;;;;;;10365370;28;20033;-59
2022/10/22 04:18:25;;;;;;;6.38;3.65;;;;;;;;;;10370128;28;20030;-58
2022/10/22 04:23:25;;;;;;;4.43;3.28;;;;;;;;;;10368441;28;20045;-58
2022/10/22 04:28:25;;;;;;;3.35;3.05;;;;;;;;;;10358656;28;20033;-59
2022/10/22 04:33:26;;;;;;;5.60;3.83;;;;;;;;;;10371180;28;20072;-58
2022/10/22 04:38:26;;;;;;;5.50;3.90;;;;;;;;;;10370469;28;20068;-57
2022/10/22 04:43:26;;;;;;;8.18;4.15;;;;;;;;;;10368807;28;20049;-58
2022/10/22 04:48:26;;;;;;;3.63;3.20;;;;;;;;;;10365795;28;20109;-58
2022/10/22 04:53:27;;;;;;;4.72;3.63;;;;;;;;;;10368581;28;20026;-57
2022/10/22 04:58:27;;;;;;;5.30;3.55;;;;;;;;;;10368136;28;20044;-58
2022/10/22 05:03:27;;;;;;;4.03;3.20;;;;;;;;;;10369495;28;20022;-58
2022/10/22 05:08:27;;;;;;;4.05;3.67;;;;;;;;;;10369577;28;20035;-58
2022/10/22 05:13:28;;;;;;;5.03;3.83;;;;;;;;;;10368474;28;20041;-58
2022/10/22 05:18:28;;;;;;;3.88;3.33;;;;;;;;;;10368999;28;20034;-57
2022/10/22 05:23:28;;;;;;;4.80;3.75;;;;;;;;;;10367240;28;20049;-58
2022/10/22 05:28:29;;;;;;;5.20;3.58;;;;;;;;;;10368385;28;20030;-58
2022/10/22 05:33:31;;;;;;;4.07;3.50;;;;;;;;;;10366314;28;20034;-56
2022/10/22 05:38:32;;;;;;;5.32;3.78;;;;;;;;;;10363367;28;20057;-59
2022/10/22 05:43:32;;;;;;;5.85;3.90;;;;;;;;;;10365635;28;20041;-58
2022/10/22 05:48:32;;;;;;;3.83;3.40;;;;;;;;;;10367186;28;20117;-58
2022/10/22 05:53:33;;;;;;;4.88;3.40;;;;;;;;;;10364653;28;20025;-58
2022/10/22 05:58:35;;;;;;;3.80;3.50;;;;;;;;;;10365926;28;20049;-58
2022/10/22 06:03:35;;;;;;;4.47;3.67;;;;;;;;;;10365367;28;20105;-59
2022/10/22 06:08:35;;;;;;;4.80;3.85;;;;;;;;;;10367165;28;21032;-52
2022/10/22 06:13:35;;;;;;;3.58;3.28;;;;;;;;;;10365082;28;20033;-57
2022/10/22 06:18:36;;;;;;;7.47;3.58;;;;;;;;;;10363845;28;20033;-52
2022/10/22 06:23:37;;;;;;;5.47;3.50;;;;;;;;;;10356124;28;20599;-57
2022/10/22 06:28:37;;;;;;;4.20;3.60;;;;;;;;;;10363015;28;20460;-54
2022/10/22 06:33:41;;;;;;;5.97;3.70;;;;;;;;;;10363472;28;20573;-56
2022/10/22 06:38:42;;;;;;;4.38;3.38;;;;;;;;;;10364182;28;20026;-57
2022/10/22 06:43:45;;;;;;;4.40;3.60;;;;;;;;;;10359426;28;20034;-56
2022/10/22 06:49:04;;;;;;;6.25;3.78;;;;;;;;;;10363383;28;20377;-53
2022/10/22 06:54:04;;;;;;;4.78;3.60;;;;;;;;;;10359484;28;20477;-57
2022/10/22 06:59:05;;;;;;;3.95;3.55;;;;;;;;;;10373651;23;20060;-57
2022/10/22 07:04:05;;;;;;;6.22;4.03;;;;;;;;;;10375421;28;20120;-57
2022/10/22 07:09:05;;;;;;;4.78;3.88;;;;;;;;;;10393076;28;20392;-59
2022/10/22 07:14:06;;;;;;;4.53;3.80;;;;;;;;;;10383962;28;20033;-59
2022/10/22 07:19:06;;;;;;;4.60;3.53;;;;;;;;;;10379783;28;20670;-58
2022/10/22 07:24:07;;;;;;;3.70;3.17;;;;;;;;;;10378630;28;20533;-59
2022/10/22 07:29:08;;;;;;;4.28;3.80;;;;;;;;;;10390016;28;20033;-56
2022/10/22 07:34:08;;;;;;;5.68;3.80;;;;;;;;;;10397609;28;20037;-56
2022/10/22 07:39:09;;;;;;;4.63;3.90;;;;;;;;;;10381716;28;20029;-58
2022/10/22 07:44:09;;;;;;;11.23;4.15;;;;;;;;;;10388458;28;20033;-58
2022/10/22 07:49:12;;;;;;;4.07;3.65;;;;;;;;;;10363117;28;20531;-58
2022/10/22 07:54:12;;;;;;;6.03;3.95;;;;;;;;;;10380388;28;20084;-58
2022/10/22 07:59:13;;;;;;;8.43;3.20;;;;;;;;;;10353195;28;20126;-59
2022/10/22 08:04:13;;;;;;;4.30;3.47;;;;;;;;;;10342361;28;20030;-60
2022/10/22 08:09:13;;;;;;;5.40;3.63;;;;;;;;;;10346263;28;20460;-58
2022/10/22 08:14:16;;;;;;;3.80;3.33;;;;;;;;;;10344704;28;20031;-56
2022/10/22 08:19:19;;;;;;;6.43;4.20;;;;;;;;;;10345247;28;20054;-55
2022/10/22 08:24:20;;;;;;;7.93;4.05;;;;;;;;;;10341688;28;20551;-55
2022/10/22 08:29:22;;;;;;;13.88;4.25;;;;;;;;;;10336400;28;20080;-58
2022/10/22 08:34:22;;;;;;;10.20;4.55;;;;;;;;;;10369783;28;20042;-58
2022/10/22 08:39:22;;;;;;;8.27;5.70;;;;;;;;;;10358591;28;20045;-58
2022/10/22 08:44:35;;;;;;;18.20;6.60;;;;;;;;;;10352934;28;20506;-59
2022/10/22 08:49:37;;;;;;;17.00;7.80;;;;;;;;;;10349471;28;20027;-60
2022/10/22 08:54:54;;;;;;;27.08;8.77;;;;;;;;;;10363002;28;20033;-60
2022/10/22 08:59:54;;;;;;;17.40;8.23;;;;;;;;;;10396334;28;20042;-59
2022/10/22 09:05:15;;;;;;;23.90;10.60;;;;;;;;;;10367664;28;20361;-58
2022/10/22 09:10:20;;;;;;;19.52;9.00;;;;;;;;;;10338828;28;20397;-56
2022/10/22 09:15:21;;;;;;;19.98;9.40;;;;;;;;;;10367540;28;20029;-55
2022/10/22 09:20:27;;;;;;;18.93;9.10;;;;;;;;;;10361115;28;20489;-57
2022/10/22 09:25:30;;;;;;;18.50;9.05;;;;;;;;;;10366066;28;20488;-58
2022/10/22 09:30:32;;;;;;;16.55;8.85;;;;;;;;;;10355301;28;20023;-61
2022/10/22 09:35:34;;;;;;;24.52;9.45;;;;;;;;;;10379962;28;20559;-55
2022/10/22 09:41:04;;;;;;;28.73;8.80;;;;;;;;;;10338133;28;20477;-60
2022/10/22 09:46:06;;;;;;;17.13;9.18;;;;;;;;;;10333489;28;20042;-58
2022/10/22 09:51:09;;;;;;;13.85;9.45;;;;;;;;;;10343337;28;20018;-58
2022/10/22 09:56:29;;;;;;;16.55;8.50;;;;;;;;;;10365266;28;20108;-58
2022/10/22 10:01:34;;;;;;;14.88;7.93;;;;;;;;;;10358711;28;20052;-61
2022/10/22 10:06:35;;;;;;;29.88;9.13;;;;;;;;;;10362947;28;20033;-59
2022/10/22 10:11:36;;;;;;;20.27;8.40;;;;;;;;;;10362267;28;20088;-60
2022/10/22 10:16:41;;;;;;;21.83;7.75;;;;;;;;;;10365262;28;20025;-60
2022/10/22 10:21:54;;;;;;;22.20;7.60;;;;;;;;;;10364346;28;20401;-60
2022/10/22 10:26:59;;;;;;;18.10;7.88;;;;;;;;;;10352681;28;20044;-59
2022/10/22 10:32:14;;;;;;;16.08;7.22;;;;;;;;;;10389762;28;20111;-60
2022/10/22 10:37:24;;;;;;;18.73;7.13;;;;;;;;;;10377896;28;20026;-60
2022/10/22 10:42:39;;;;;;;12.70;6.22;;;;;;;;;;10364833;28;20784;-60
2022/10/22 10:47:43;;;;;;;12.30;6.22;;;;;;;;;;10365155;28;20076;-60
2022/10/22 10:52:49;;;;;;;17.83;6.13;;;;;;;;;;10363736;28;20188;-60
2022/10/22 10:57:56;;;;;;;14.60;6.45;;;;;;;;;;10367179;28;20389;-61
2022/10/22 11:03:31;;;;;;;10.25;5.90;;;;;;;;;;10365956;28;21446;-60
2022/10/22 11:08:53;;;;;;;12.00;4.95;;;;;;;;;;10363741;28;20166;-60
2022/10/22 11:14:12;;;;;;;14.23;5.90;;;;;;;;;;10372508;28;20088;-60
2022/10/22 11:19:12;;;;;;;8.50;5.90;;;;;;;;;;10391479;28;20481;-60
2022/10/22 11:24:21;;;;;;;10.80;4.97;;;;;;;;;;10369302;28;20034;-60
2022/10/22 11:29:27;;;;;;;8.35;5.03;;;;;;;;;;10369462;28;20026;-60
2022/10/22 11:34:32;;;;;;;8.65;5.28;;;;;;;;;;10364699;28;20025;-60
2022/10/22 11:39:44;;;;;;;11.10;5.03;;;;;;;;;;10359855;28;20035;-60
2022/10/22 11:44:47;;;;;;;8.85;4.70;;;;;;;;;;10359151;28;20056;-60
2022/10/22 11:50:05;;;;;;;12.38;5.25;;;;;;;;;;10357581;28;20061;-60
2022/10/22 11:55:24;;;;;;;15.80;5.18;;;;;;;;;;10374296;28;20033;-60
2022/10/22 12:00:45;;;;;;;11.38;4.72;;;;;;;;;;10368481;28;20056;-60
2022/10/22 12:05:45;;;;;;;7.82;5.00;;;;;;;;;;10364420;28;20026;-60
2022/10/22 12:10:53;;;;;;;9.80;5.07;;;;;;;;;;10371387;28;20034;-60
2022/10/22 12:15:56;;;;;;;6.95;4.75;;;;;;;;;;10359362;28;20875;-60
2022/10/22 12:20:56;;;;;;;10.45;4.97;;;;;;;;;;10376734;28;20463;-60
2022/10/22 12:25:57;;;;;;;11.35;5.15;;;;;;;;;;10369436;28;20029;-60
2022/10/22 12:30:58;;;;;;;10.15;5.30;;;;;;;;;;10368622;28;20477;-60
2022/10/22 12:36:02;;;;;;;10.00;5.40;;;;;;;;;;10369236;28;20154;-60
2022/10/22 12:41:03;;;;;;;9.13;4.70;;;;;;;;;;10369247;28;20045;-60
2022/10/22 12:46:03;;;;;;;6.77;4.80;;;;;;;;;;10369280;28;20033;-60
2022/10/22 12:51:06;;;;;;;12.63;4.40;;;;;;;;;;10369289;28;20037;-60
2022/10/22 12:56:11;;;;;;;11.63;4.82;;;;;;;;;;10366651;28;20068;-59
2022/10/22 13:01:12;;;;;;;6.03;4.25;;;;;;;;;;10367507;28;20046;-60
2022/10/22 13:06:22;;;;;;;13.10;5.32;;;;;;;;;;10364006;28;20052;-58
2022/10/22 13:11:22;;;;;;;7.60;4.47;;;;;;;;;;10373376;28;20048;-58
2022/10/22 13:16:24;;;;;;;8.15;4.50;;;;;;;;;;10384610;28;20380;-58
2022/10/22 13:21:31;;;;;;;6.90;4.18;;;;;;;;;;10374242;28;20124;-57
2022/10/22 13:26:33;;;;;;;13.57;4.45;;;;;;;;;;10366968;28;20034;-57
2022/10/22 13:31:36;;;;;;;11.93;4.20;;;;;;;;;;10359824;28;20517;-57
2022/10/22 13:36:36;;;;;;;5.93;4.18;;;;;;;;;;10361748;28;20034;-57
2022/10/22 13:41:37;;;;;;;5.53;3.85;;;;;;;;;;10362326;28;20044;-57
2022/10/22 13:46:41;;;;;;;9.43;4.15;;;;;;;;;;10369906;28;20034;-57
2022/10/22 13:51:41;;;;;;;6.47;3.95;;;;;;;;;;10373208;28;20567;-57
2022/10/22 13:56:42;;;;;;;6.45;4.35;;;;;;;;;;10362311;28;20033;-57
2022/10/22 14:01:42;;;;;;;11.35;4.68;;;;;;;;;;10375362;28;20100;-57
2022/10/22 14:06:42;;;;;;;9.88;4.00;;;;;;;;;;10368933;28;20126;-57
2022/10/22 14:11:43;;;;;;;8.98;4.03;;;;;;;;;;10373692;28;20030;-57
2022/10/22 14:16:43;;;;;;;8.07;3.97;;;;;;;;;;10372570;28;20034;-60
2022/10/22 14:21:44;;;;;;;5.70;3.80;;;;;;;;;;10379025;28;20477;-59
2022/10/22 14:26:44;;;;;;;7.32;3.80;;;;;;;;;;10382235;28;20095;-59
2022/10/22 14:31:44;;;;;;;8.45;3.60;;;;;;;;;;10390803;28;20477;-58
2022/10/22 14:36:44;;;;;;;6.30;3.53;;;;;;;;;;10371996;28;20441;-59
2022/10/22 14:41:45;;;;;;;6.90;3.38;;;;;;;;;;10377888;28;20034;-59
2022/10/22 14:46:45;;;;;;;10.02;3.70;;;;;;;;;;10401558;28;20029;-58
2022/10/22 14:51:46;;;;;;;9.52;3.40;;;;;;;;;;10377468;28;20075;-59
2022/10/22 14:56:46;;;;;;;5.97;3.15;;;;;;;;;;10347546;28;20037;-59
2022/10/22 15:01:46;;;;;;;6.82;3.92;;;;;;;;;;10353666;28;20036;-58
2022/10/22 15:06:47;;;;;;;5.82;3.33;;;;;;;;;;10372852;28;20035;-59
2022/10/22 15:11:47;;;;;;;8.82;3.50;;;;;;;;;;10386890;28;20485;-59
2022/10/22 15:16:47;;;;;;;5.82;3.67;;;;;;;;;;10374289;28;20611;-59
2022/10/22 15:21:48;;;;;;;6.05;3.47;;;;;;;;;;10401121;28;20385;-59
2022/10/22 15:26:51;;;;;;;8.00;3.17;;;;;;;;;;10399066;28;20121;-59
2022/10/22 15:31:53;;;;;;;8.05;3.45;;;;;;;;;;10384853;28;20026;-59
2022/10/22 15:36:55;;;;;;;8.48;3.70;;;;;;;;;;10371803;28;20050;-59
2022/10/22 15:41:56;;;;;;;7.25;3.72;;;;;;;;;;10372619;28;20042;-59
2022/10/22 15:46:56;;;;;;;5.22;2.55;;;;;;;;;;10364573;28;20038;-59
2022/10/22 15:51:56;;;;;;;6.63;3.08;;;;;;;;;;10362752;28;20038;-59
2022/10/22 15:56:58;;;;;;;7.72;3.47;;;;;;;;;;10371395;28;20034;-59
2022/10/22 16:01:58;;;;;;;5.93;3.13;;;;;;;;;;10367311;28;20382;-59
2022/10/22 16:06:59;;;;;;;6.03;2.92;;;;;;;;;;10370293;28;20033;-59
2022/10/22 16:11:59;;;;;;;5.80;3.50;;;;;;;;;;10365732;28;20049;-59
2022/10/22 16:17:00;;;;;;;10.20;2.80;;;;;;;;;;10372848;28;20033;-59
2022/10/22 16:22:02;;;;;;;7.70;3.13;;;;;;;;;;10370001;28;20038;-59
2022/10/22 16:27:03;;;;;;;3.08;2.42;;;;;;;;;;10364685;28;20045;-59
2022/10/22 16:32:03;;;;;;;9.57;3.25;;;;;;;;;;10362575;28;20030;-58
2022/10/22 16:37:08;;;;;;;5.90;2.90;;;;;;;;;;10357982;28;20032;-59
2022/10/22 16:42:08;;;;;;;7.55;2.80;;;;;;;;;;10372049;28;20500;-59
2022/10/22 16:47:09;;;;;;;5.80;2.78;;;;;;;;;;10363599;28;20118;-58
2022/10/22 16:52:09;;;;;;;5.30;2.67;;;;;;;;;;10382908;28;20026;-59
2022/10/22 16:57:11;;;;;;;3.50;2.83;;;;;;;;;;10356918;28;20053;-59
2022/10/22 17:02:11;;;;;;;3.97;2.60;;;;;;;;;;10365745;28;20131;-58
2022/10/22 17:07:12;;;;;;;5.82;2.85;;;;;;;;;;10364680;28;20033;-58
2022/10/22 17:12:12;;;;;;;4.87;2.80;;;;;;;;;;10377805;28;20061;-57
2022/10/22 17:17:12;;;;;;;6.22;2.65;;;;;;;;;;10374335;28;20079;-59
2022/10/22 17:22:12;;;;;;;5.63;2.50;;;;;;;;;;10365750;28;20042;-59
2022/10/22 17:27:13;;;;;;;6.40;2.53;;;;;;;;;;10362595;28;20042;-58
2022/10/22 17:32:13;;;;;;;5.47;2.90;;;;;;;;;;10356672;28;20022;-57
2022/10/22 17:37:15;;;;;;;5.05;2.53;;;;;;;;;;10354414;28;20392;-58
2022/10/22 17:42:15;;;;;;;5.82;2.83;;;;;;;;;;10360715;28;20049;-58
2022/10/22 17:47:16;;;;;;;6.33;2.67;;;;;;;;;;10355733;28;20594;-59
2022/10/22 17:52:16;;;;;;;5.40;2.88;;;;;;;;;;10353455;28;20112;-58
2022/10/22 17:57:16;;;;;;;4.80;2.57;;;;;;;;;;10346907;28;20382;-58
2022/10/22 18:02:17;;;;;;;6.15;2.97;;;;;;;;;;10347393;28;20061;-57
2022/10/22 18:07:17;;;;;;;12.67;3.90;;;;;;;;;;10360958;28;20440;-57
2022/10/22 18:12:17;;;;;;;16.48;4.22;;;;;;;;;;10359623;28;20030;-57
2022/10/22 18:17:17;;;;;;;16.48;3.80;;;;;;;;;;10366982;28;20032;-58
2022/10/22 18:22:18;;;;;;;9.13;3.50;;;;;;;;;;10363817;28;20037;-57
2022/10/22 18:27:18;;;;;;;6.90;3.10;;;;;;;;;;10370074;28;20167;-58
2022/10/22 18:32:18;;;;;;;9.55;3.30;;;;;;;;;;10374151;28;20528;-58
2022/10/22 18:37:18;;;;;;;9.25;3.20;;;;;;;;;;10373682;28;20408;-58
2022/10/22 18:42:19;;;;;;;5.60;3.13;;;;;;;;;;10372304;28;20032;-57
2022/10/22 18:47:19;;;;;;;8.50;2.87;;;;;;;;;;10357543;28;20385;-57
2022/10/22 18:52:19;;;;;;;9.20;2.83;;;;;;;;;;10363210;28;20374;-57
2022/10/22 18:57:19;;;;;;;5.43;2.50;;;;;;;;;;10354162;28;20577;-58
2022/10/22 19:02:20;;;;;;;9.57;3.00;;;;;;;;;;10378520;28;20079;-57
2022/10/22 19:07:20;;;;;;;5.80;2.95;;;;;;;;;;10367814;28;20022;-57
2022/10/22 19:12:20;;;;;;;4.10;2.90;;;;;;;;;;10363418;28;20541;-59
2022/10/22 19:17:21;;;;;;;10.85;2.92;;;;;;;;;;10373123;28;20050;-59
2022/10/22 19:22:21;;;;;;;5.40;3.15;;;;;;;;;;10355227;28;20056;-59
2022/10/22 19:27:21;;;;;;;7.30;2.93;;;;;;;;;;10363677;28;20030;-59
2022/10/22 19:32:22;;;;;;;3.88;2.50;;;;;;;;;;10364102;28;20463;-58
2022/10/22 19:37:22;;;;;;;10.57;3.13;;;;;;;;;;10366797;28;20026;-59
2022/10/22 19:42:22;;;;;;;6.65;2.97;;;;;;;;;;10363674;28;20030;-59
2022/10/22 19:47:22;;;;;;;9.02;3.45;;;;;;;;;;10360961;28;20038;-58
2022/10/22 19:52:23;;;;;;;17.42;4.13;;;;;;;;;;10367310;28;20034;-58
2022/10/22 19:57:23;;;;;;;9.13;3.00;;;;;;;;;;10360579;28;20448;-58
2022/10/22 20:02:24;;;;;;;15.30;3.08;;;;;;;;;;10368652;28;20034;-58
2022/10/22 20:07:27;;;;;;;10.45;2.95;;;;;;;;;;10370215;28;20551;-58
2022/10/22 20:12:28;;;;;;;10.45;3.20;;;;;;;;;;10370413;28;20105;-59
2022/10/22 20:17:28;;;;;;;11.27;3.25;;;;;;;;;;10372943;28;20396;-58
2022/10/22 20:22:28;;;;;;;7.25;2.70;;;;;;;;;;10367155;28;20036;-58
2022/10/22 20:27:28;;;;;;;5.50;3.33;;;;;;;;;;10373121;28;20108;-58
2022/10/22 20:32:29;;;;;;;6.90;2.95;;;;;;;;;;10362621;28;20386;-58
2022/10/22 20:37:29;;;;;;;6.13;2.60;;;;;;;;;;10365629;28;20389;-58
2022/10/22 20:42:29;;;;;;;9.30;2.95;;;;;;;;;;10376312;28;20401;-58
2022/10/22 20:47:29;;;;;;;8.57;2.70;;;;;;;;;;10368761;28;20096;-58
2022/10/22 20:52:30;;;;;;;6.07;2.60;;;;;;;;;;10375077;28;20139;-58
2022/10/22 20:57:30;;;;;;;4.90;2.67;;;;;;;;;;10369180;28;20041;-58
2022/10/22 21:02:30;;;;;;;10.83;2.63;;;;;;;;;;10378404;28;20121;-58
2022/10/22 21:07:31;;;;;;;5.40;2.63;;;;;;;;;;10372167;28;20046;-58
2022/10/22 21:12:31;;;;;;;5.70;2.72;;;;;;;;;;10378629;28;20033;-58
2022/10/22 21:17:31;;;;;;;6.35;2.70;;;;;;;;;;10370416;28;20041;-58
2022/10/22 21:22:32;;;;;;;2.60;2.25;;;;;;;;;;10358261;28;20083;-58
2022/10/22 21:27:32;;;;;;;7.72;3.28;;;;;;;;;;10371337;28;20397;-59
2022/10/22 21:32:32;;;;;;;2.77;2.30;;;;;;;;;;10367495;28;20040;-58
2022/10/22 21:37:34;;;;;;;4.57;2.45;;;;;;;;;;10374768;28;20997;-58
2022/10/22 21:42:34;;;;;;;4.63;2.80;;;;;;;;;;10364672;28;20113;-59
2022/10/22 21:47:34;;;;;;;8.40;2.92;;;;;;;;;;10367575;28;20037;-58
2022/10/22 21:52:34;;;;;;;4.30;2.43;;;;;;;;;;10364978;28;20457;-58
2022/10/22 21:57:35;;;;;;;9.80;2.70;;;;;;;;;;10367070;28;20513;-59
2022/10/22 22:02:35;;;;;;;5.75;2.60;;;;;;;;;;10374246;28;20040;-58
2022/10/22 22:07:35;;;;;;;7.05;2.83;;;;;;;;;;10376069;28;20107;-59
2022/10/22 22:12:36;;;;;;;11.80;2.80;;;;;;;;;;10366978;28;20108;-59
2022/10/22 22:17:36;;;;;;;8.37;2.40;;;;;;;;;;10363457;28;20060;-58
2022/10/22 22:22:36;;;;;;;4.68;2.45;;;;;;;;;;10372135;28;20475;-58
2022/10/22 22:27:36;;;;;;;10.00;2.70;;;;;;;;;;10390489;28;20033;-58
2022/10/22 22:32:37;;;;;;;7.77;3.47;;;;;;;;;;10375999;28;20050;-58
2022/10/22 22:37:37;;;;;;;5.10;2.80;;;;;;;;;;10365339;28;20546;-58
2022/10/22 22:42:37;;;;;;;5.10;2.17;;;;;;;;;;10365147;28;20389;-58
2022/10/22 22:47:38;;;;;;;6.72;2.38;;;;;;;;;;10353298;28;20038;-58
2022/10/22 22:52:38;;;;;;;7.15;2.40;;;;;;;;;;10362853;28;20025;-57
2022/10/22 22:57:38;;;;;;;5.88;2.40;;;;;;;;;;10335126;28;20075;-56
2022/10/22 23:02:38;;;;;;;7.90;2.70;;;;;;;;;;10364736;28;20036;-58
2022/10/22 23:07:39;;;;;;;6.88;2.30;;;;;;;;;;10377261;28;20044;-58
2022/10/22 23:12:39;;;;;;;5.53;2.55;;;;;;;;;;10377394;28;20022;-59
2022/10/22 23:17:39;;;;;;;9.13;2.50;;;;;;;;;;10377019;28;20441;-58
2022/10/22 23:22:40;;;;;;;5.75;2.00;;;;;;;;;;10366586;28;20060;-58
2022/10/22 23:27:40;;;;;;;10.30;2.25;;;;;;;;;;10372863;28;20124;-58
2022/10/22 23:32:40;;;;;;;5.82;2.47;;;;;;;;;;10408322;28;20026;-58
2022/10/22 23:37:41;;;;;;;5.32;2.65;;;;;;;;;;10380167;28;20121;-58
2022/10/22 23:42:43;;;;;;;4.15;2.60;;;;;;;;;;10371661;28;20037;-59
2022/10/22 23:47:43;;;;;;;2.97;2.15;;;;;;;;;;10358553;28;20053;-59
2022/10/22 23:52:44;;;;;;;3.85;2.30;;;;;;;;;;10376290;28;20022;-59
2022/10/22 23:57:44;;;;;;;4.87;2.43;;;;;;;;;;10370867;28;20041;-59
